sensor_id;sensor_type;location;lat;lon;timestamp;P1;durP1;ratioP1;P2;durP2;ratioP2
6420;SDS011;3243;50.958;7.012;2023-11-18T00:01:05;47.67;;;21.63;;
6420;SDS011;3243;50.958;7.012;2023-11-18T00:03:32;49.10;;;22.70;;
6420;SDS011;3243;50.958;7.012;2023-11-18T00:06:00;47.73;;;22.83;;
6420;SDS011;3243;50.958;7.012;2023-11-18T00:08:26;42.37;;;22.33;;
6420;SDS011;3243;50.958;7.012;2023-11-18T00:10:53;45.17;;;22.47;;
6420;SDS011;3243;50.958;7.012;2023-11-18T00:13:20;48.77;;;23.20;;
6420;SDS011;3243;50.958;7.012;2023-11-18T00:15:48;44.93;;;21.90;;
6420;SDS011;3243;50.958;7.012;2023-11-18T00:18:15;52.50;;;23.00;;
6420;SDS011;3243;50.958;7.012;2023-11-18T00:20:42;46.70;;;21.83;;
6420;SDS011;3243;50.958;7.012;2023-11-18T00:23:09;47.93;;;22.87;;
6420;SDS011;3243;50.958;7.012;2023-11-18T00:25:36;55.37;;;24.30;;
6420;SDS011;3243;50.958;7.012;2023-11-18T00:28:06;54.93;;;23.23;;
6420;SDS011;3243;50.958;7.012;2023-11-18T00:30:36;61.93;;;24.50;;
6420;SDS011;3243;50.958;7.012;2023-11-18T00:33:03;53.87;;;21.93;;
6420;SDS011;3243;50.958;7.012;2023-11-18T00:35:30;43.87;;;21.80;;
6420;SDS011;3243;50.958;7.012;2023-11-18T00:38:00;43.70;;;21.47;;
6420;SDS011;3243;50.958;7.012;2023-11-18T00:40:27;45.47;;;21.30;;
6420;SDS011;3243;50.958;7.012;2023-11-18T00:42:56;45.03;;;21.00;;
6420;SDS011;3243;50.958;7.012;2023-11-18T00:45:23;61.33;;;23.77;;
6420;SDS011;3243;50.958;7.012;2023-11-18T00:47:50;54.37;;;22.20;;
6420;SDS011;3243;50.958;7.012;2023-11-18T00:50:17;53.53;;;23.60;;
6420;SDS011;3243;50.958;7.012;2023-11-18T00:52:44;46.57;;;22.63;;
6420;SDS011;3243;50.958;7.012;2023-11-18T00:55:14;55.10;;;23.33;;
6420;SDS011;3243;50.958;7.012;2023-11-18T00:57:44;55.60;;;23.40;;
6420;SDS011;3243;50.958;7.012;2023-11-18T01:00:12;56.90;;;23.97;;
6420;SDS011;3243;50.958;7.012;2023-11-18T01:02:41;48.97;;;22.93;;
6420;SDS011;3243;50.958;7.012;2023-11-18T01:05:08;57.07;;;24.07;;
6420;SDS011;3243;50.958;7.012;2023-11-18T01:07:40;67.93;;;26.57;;
6420;SDS011;3243;50.958;7.012;2023-11-18T01:10:07;48.40;;;23.20;;
6420;SDS011;3243;50.958;7.012;2023-11-18T01:12:36;51.50;;;22.40;;
6420;SDS011;3243;50.958;7.012;2023-11-18T01:15:03;58.87;;;24.03;;
6420;SDS011;3243;50.958;7.012;2023-11-18T01:17:31;60.70;;;23.33;;
6420;SDS011;3243;50.958;7.012;2023-11-18T01:19:58;45.17;;;21.10;;
6420;SDS011;3243;50.958;7.012;2023-11-18T01:22:27;54.07;;;22.60;;
6420;SDS011;3243;50.958;7.012;2023-11-18T01:24:55;44.43;;;20.87;;
6420;SDS011;3243;50.958;7.012;2023-11-18T01:27:24;48.47;;;21.87;;
6420;SDS011;3243;50.958;7.012;2023-11-18T01:29:51;49.83;;;22.87;;
6420;SDS011;3243;50.958;7.012;2023-11-18T01:32:17;56.63;;;23.70;;
6420;SDS011;3243;50.958;7.012;2023-11-18T01:34:45;40.13;;;20.07;;
6420;SDS011;3243;50.958;7.012;2023-11-18T01:37:16;44.93;;;21.33;;
6420;SDS011;3243;50.958;7.012;2023-11-18T01:39:43;45.43;;;22.07;;
6420;SDS011;3243;50.958;7.012;2023-11-18T01:42:10;45.10;;;21.17;;
6420;SDS011;3243;50.958;7.012;2023-11-18T01:44:37;39.73;;;19.50;;
6420;SDS011;3243;50.958;7.012;2023-11-18T01:47:04;44.83;;;20.50;;
6420;SDS011;3243;50.958;7.012;2023-11-18T01:49:36;39.33;;;20.17;;
6420;SDS011;3243;50.958;7.012;2023-11-18T01:52:06;36.30;;;18.50;;
6420;SDS011;3243;50.958;7.012;2023-11-18T01:54:35;39.83;;;19.77;;
6420;SDS011;3243;50.958;7.012;2023-11-18T01:57:04;39.57;;;20.57;;
6420;SDS011;3243;50.958;7.012;2023-11-18T01:59:35;32.63;;;17.77;;
6420;SDS011;3243;50.958;7.012;2023-11-18T02:02:04;39.60;;;19.40;;
6420;SDS011;3243;50.958;7.012;2023-11-18T02:04:31;41.57;;;20.20;;
6420;SDS011;3243;50.958;7.012;2023-11-18T02:06:58;47.97;;;21.80;;
6420;SDS011;3243;50.958;7.012;2023-11-18T02:09:25;37.80;;;18.50;;
6420;SDS011;3243;50.958;7.012;2023-11-18T02:14:26;37.77;;;19.30;;
6420;SDS011;3243;50.958;7.012;2023-11-18T02:16:53;46.40;;;20.70;;
6420;SDS011;3243;50.958;7.012;2023-11-18T02:19:25;41.90;;;20.23;;
6420;SDS011;3243;50.958;7.012;2023-11-18T02:21:52;44.87;;;21.07;;
6420;SDS011;3243;50.958;7.012;2023-11-18T02:24:30;36.43;;;18.43;;
6420;SDS011;3243;50.958;7.012;2023-11-18T02:27:03;40.03;;;19.77;;
6420;SDS011;3243;50.958;7.012;2023-11-18T02:29:37;37.80;;;19.13;;
6420;SDS011;3243;50.958;7.012;2023-11-18T02:32:25;38.20;;;18.93;;
6420;SDS011;3243;50.958;7.012;2023-11-18T02:37:52;37.00;;;18.83;;
6420;SDS011;3243;50.958;7.012;2023-11-18T02:40:35;38.07;;;19.60;;
6420;SDS011;3243;50.958;7.012;2023-11-18T02:43:04;35.87;;;18.97;;
6420;SDS011;3243;50.958;7.012;2023-11-18T02:45:32;42.93;;;20.83;;
6420;SDS011;3243;50.958;7.012;2023-11-18T02:48:00;40.53;;;19.90;;
6420;SDS011;3243;50.958;7.012;2023-11-18T02:50:27;37.43;;;18.63;;
6420;SDS011;3243;50.958;7.012;2023-11-18T02:52:55;44.47;;;20.87;;
6420;SDS011;3243;50.958;7.012;2023-11-18T02:55:22;39.07;;;20.00;;
6420;SDS011;3243;50.958;7.012;2023-11-18T02:57:50;36.07;;;18.83;;
6420;SDS011;3243;50.958;7.012;2023-11-18T03:00:20;40.77;;;20.00;;
6420;SDS011;3243;50.958;7.012;2023-11-18T03:02:50;39.43;;;18.87;;
6420;SDS011;3243;50.958;7.012;2023-11-18T03:05:18;43.73;;;19.80;;
6420;SDS011;3243;50.958;7.012;2023-11-18T03:07:47;40.30;;;18.97;;
6420;SDS011;3243;50.958;7.012;2023-11-18T03:10:20;38.40;;;19.20;;
6420;SDS011;3243;50.958;7.012;2023-11-18T03:15:15;41.53;;;20.97;;
6420;SDS011;3243;50.958;7.012;2023-11-18T03:17:45;44.90;;;21.30;;
6420;SDS011;3243;50.958;7.012;2023-11-18T03:20:14;38.17;;;18.87;;
6420;SDS011;3243;50.958;7.012;2023-11-18T03:22:45;40.63;;;19.33;;
6420;SDS011;3243;50.958;7.012;2023-11-18T03:25:13;40.37;;;19.77;;
6420;SDS011;3243;50.958;7.012;2023-11-18T03:27:40;43.13;;;18.97;;
6420;SDS011;3243;50.958;7.012;2023-11-18T03:30:08;37.90;;;19.93;;
6420;SDS011;3243;50.958;7.012;2023-11-18T03:32:35;38.20;;;19.90;;
6420;SDS011;3243;50.958;7.012;2023-11-18T03:35:03;38.63;;;18.83;;
6420;SDS011;3243;50.958;7.012;2023-11-18T03:37:35;41.73;;;20.90;;
6420;SDS011;3243;50.958;7.012;2023-11-18T03:40:06;36.23;;;18.27;;
6420;SDS011;3243;50.958;7.012;2023-11-18T03:42:33;39.50;;;20.10;;
6420;SDS011;3243;50.958;7.012;2023-11-18T03:45:02;39.13;;;19.57;;
6420;SDS011;3243;50.958;7.012;2023-11-18T03:47:29;45.70;;;21.13;;
6420;SDS011;3243;50.958;7.012;2023-11-18T03:49:57;43.23;;;20.47;;
6420;SDS011;3243;50.958;7.012;2023-11-18T03:52:24;39.30;;;20.03;;
6420;SDS011;3243;50.958;7.012;2023-11-18T03:54:52;43.20;;;20.40;;
6420;SDS011;3243;50.958;7.012;2023-11-18T03:57:19;39.57;;;19.73;;
6420;SDS011;3243;50.958;7.012;2023-11-18T03:59:45;38.73;;;19.57;;
6420;SDS011;3243;50.958;7.012;2023-11-18T04:02:12;41.43;;;19.90;;
6420;SDS011;3243;50.958;7.012;2023-11-18T04:04:39;36.60;;;19.47;;
6420;SDS011;3243;50.958;7.012;2023-11-18T04:07:06;42.03;;;21.13;;
6420;SDS011;3243;50.958;7.012;2023-11-18T04:09:33;37.70;;;20.47;;
6420;SDS011;3243;50.958;7.012;2023-11-18T04:12:00;39.67;;;19.60;;
6420;SDS011;3243;50.958;7.012;2023-11-18T04:14:27;35.93;;;19.43;;
6420;SDS011;3243;50.958;7.012;2023-11-18T04:16:54;42.47;;;20.40;;
6420;SDS011;3243;50.958;7.012;2023-11-18T04:19:23;38.20;;;20.17;;
6420;SDS011;3243;50.958;7.012;2023-11-18T04:21:50;41.07;;;20.47;;
6420;SDS011;3243;50.958;7.012;2023-11-18T04:24:17;36.80;;;19.10;;
6420;SDS011;3243;50.958;7.012;2023-11-18T04:26:44;33.63;;;18.93;;
6420;SDS011;3243;50.958;7.012;2023-11-18T04:29:12;39.57;;;20.23;;
6420;SDS011;3243;50.958;7.012;2023-11-18T04:31:38;42.13;;;20.37;;
6420;SDS011;3243;50.958;7.012;2023-11-18T04:34:06;38.30;;;20.07;;
6420;SDS011;3243;50.958;7.012;2023-11-18T04:36:33;37.23;;;19.23;;
6420;SDS011;3243;50.958;7.012;2023-11-18T04:39:00;40.43;;;20.57;;
6420;SDS011;3243;50.958;7.012;2023-11-18T04:41:29;37.43;;;19.70;;
6420;SDS011;3243;50.958;7.012;2023-11-18T04:43:57;35.07;;;18.57;;
6420;SDS011;3243;50.958;7.012;2023-11-18T04:46:24;36.03;;;19.63;;
6420;SDS011;3243;50.958;7.012;2023-11-18T04:48:52;39.63;;;19.20;;
6420;SDS011;3243;50.958;7.012;2023-11-18T04:51:21;39.37;;;20.43;;
6420;SDS011;3243;50.958;7.012;2023-11-18T04:53:51;36.40;;;18.80;;
6420;SDS011;3243;50.958;7.012;2023-11-18T04:56:18;41.23;;;20.07;;
6420;SDS011;3243;50.958;7.012;2023-11-18T04:58:45;41.53;;;20.90;;
6420;SDS011;3243;50.958;7.012;2023-11-18T05:01:14;42.20;;;21.80;;
6420;SDS011;3243;50.958;7.012;2023-11-18T05:03:41;35.03;;;19.30;;
6420;SDS011;3243;50.958;7.012;2023-11-18T05:06:08;36.90;;;20.30;;
6420;SDS011;3243;50.958;7.012;2023-11-18T05:08:35;41.43;;;20.10;;
6420;SDS011;3243;50.958;7.012;2023-11-18T05:11:02;39.13;;;19.93;;
6420;SDS011;3243;50.958;7.012;2023-11-18T05:13:31;42.13;;;21.23;;
6420;SDS011;3243;50.958;7.012;2023-11-18T05:16:00;47.33;;;21.27;;
6420;SDS011;3243;50.958;7.012;2023-11-18T05:18:26;39.50;;;20.10;;
6420;SDS011;3243;50.958;7.012;2023-11-18T05:20:59;43.57;;;21.77;;
6420;SDS011;3243;50.958;7.012;2023-11-18T05:23:26;39.30;;;21.20;;
6420;SDS011;3243;50.958;7.012;2023-11-18T05:25:55;48.63;;;22.63;;
6420;SDS011;3243;50.958;7.012;2023-11-18T05:28:22;37.37;;;19.70;;
6420;SDS011;3243;50.958;7.012;2023-11-18T05:30:50;37.40;;;19.53;;
6420;SDS011;3243;50.958;7.012;2023-11-18T05:33:17;41.97;;;21.07;;
6420;SDS011;3243;50.958;7.012;2023-11-18T05:35:45;34.47;;;19.33;;
6420;SDS011;3243;50.958;7.012;2023-11-18T05:38:16;35.37;;;18.90;;
6420;SDS011;3243;50.958;7.012;2023-11-18T05:40:45;38.50;;;19.83;;
6420;SDS011;3243;50.958;7.012;2023-11-18T05:43:28;41.43;;;21.27;;
6420;SDS011;3243;50.958;7.012;2023-11-18T05:46:03;36.23;;;20.13;;
6420;SDS011;3243;50.958;7.012;2023-11-18T05:49:01;39.13;;;20.70;;
6420;SDS011;3243;50.958;7.012;2023-11-18T05:51:33;35.10;;;19.77;;
6420;SDS011;3243;50.958;7.012;2023-11-18T05:54:00;35.77;;;20.10;;
6420;SDS011;3243;50.958;7.012;2023-11-18T05:56:27;39.77;;;20.13;;
6420;SDS011;3243;50.958;7.012;2023-11-18T05:58:54;40.80;;;19.73;;
6420;SDS011;3243;50.958;7.012;2023-11-18T06:01:21;43.93;;;21.33;;
6420;SDS011;3243;50.958;7.012;2023-11-18T06:03:48;36.37;;;19.50;;
6420;SDS011;3243;50.958;7.012;2023-11-18T06:06:16;32.47;;;18.33;;
6420;SDS011;3243;50.958;7.012;2023-11-18T06:08:49;38.43;;;20.23;;
6420;SDS011;3243;50.958;7.012;2023-11-18T06:11:16;31.93;;;18.77;;
6420;SDS011;3243;50.958;7.012;2023-11-18T06:13:46;33.03;;;17.90;;
6420;SDS011;3243;50.958;7.012;2023-11-18T06:16:21;34.27;;;18.80;;
6420;SDS011;3243;50.958;7.012;2023-11-18T06:18:52;31.47;;;18.33;;
6420;SDS011;3243;50.958;7.012;2023-11-18T06:21:22;38.73;;;19.27;;
6420;SDS011;3243;50.958;7.012;2023-11-18T06:23:57;32.40;;;18.10;;
6420;SDS011;3243;50.958;7.012;2023-11-18T06:26:26;31.23;;;17.97;;
6420;SDS011;3243;50.958;7.012;2023-11-18T06:28:54;38.17;;;19.47;;
6420;SDS011;3243;50.958;7.012;2023-11-18T06:31:22;34.50;;;18.10;;
6420;SDS011;3243;50.958;7.012;2023-11-18T06:33:50;36.20;;;18.77;;
6420;SDS011;3243;50.958;7.012;2023-11-18T06:36:18;30.80;;;18.30;;
6420;SDS011;3243;50.958;7.012;2023-11-18T06:38:50;32.93;;;17.17;;
6420;SDS011;3243;50.958;7.012;2023-11-18T06:41:18;35.73;;;18.33;;
6420;SDS011;3243;50.958;7.012;2023-11-18T06:43:50;37.77;;;18.73;;
6420;SDS011;3243;50.958;7.012;2023-11-18T06:46:29;33.57;;;17.97;;
6420;SDS011;3243;50.958;7.012;2023-11-18T06:49:01;35.47;;;18.67;;
6420;SDS011;3243;50.958;7.012;2023-11-18T06:51:34;33.97;;;18.30;;
6420;SDS011;3243;50.958;7.012;2023-11-18T06:54:03;33.57;;;18.53;;
6420;SDS011;3243;50.958;7.012;2023-11-18T06:56:37;28.57;;;16.53;;
6420;SDS011;3243;50.958;7.012;2023-11-18T06:59:07;31.10;;;17.43;;
6420;SDS011;3243;50.958;7.012;2023-11-18T07:01:36;34.63;;;18.23;;
6420;SDS011;3243;50.958;7.012;2023-11-18T07:04:03;36.50;;;18.17;;
6420;SDS011;3243;50.958;7.012;2023-11-18T07:06:30;35.00;;;18.03;;
6420;SDS011;3243;50.958;7.012;2023-11-18T07:08:57;28.73;;;16.07;;
6420;SDS011;3243;50.958;7.012;2023-11-18T07:11:26;34.33;;;19.10;;
6420;SDS011;3243;50.958;7.012;2023-11-18T07:13:54;33.27;;;17.73;;
6420;SDS011;3243;50.958;7.012;2023-11-18T07:16:23;28.87;;;16.13;;
6420;SDS011;3243;50.958;7.012;2023-11-18T07:18:51;31.47;;;17.50;;
6420;SDS011;3243;50.958;7.012;2023-11-18T07:21:18;27.53;;;16.67;;
6420;SDS011;3243;50.958;7.012;2023-11-18T07:23:46;32.73;;;17.07;;
6420;SDS011;3243;50.958;7.012;2023-11-18T07:26:13;29.03;;;16.63;;
6420;SDS011;3243;50.958;7.012;2023-11-18T07:28:40;31.10;;;17.40;;
6420;SDS011;3243;50.958;7.012;2023-11-18T07:31:07;27.53;;;16.47;;
6420;SDS011;3243;50.958;7.012;2023-11-18T07:33:35;24.77;;;14.93;;
6420;SDS011;3243;50.958;7.012;2023-11-18T07:36:03;27.97;;;16.93;;
6420;SDS011;3243;50.958;7.012;2023-11-18T07:38:32;28.63;;;16.83;;
6420;SDS011;3243;50.958;7.012;2023-11-18T07:41:00;24.47;;;15.77;;
6420;SDS011;3243;50.958;7.012;2023-11-18T07:43:29;28.33;;;17.90;;
6420;SDS011;3243;50.958;7.012;2023-11-18T07:45:56;26.63;;;16.47;;
6420;SDS011;3243;50.958;7.012;2023-11-18T07:48:23;26.93;;;16.77;;
6420;SDS011;3243;50.958;7.012;2023-11-18T07:50:51;27.20;;;17.10;;
6420;SDS011;3243;50.958;7.012;2023-11-18T07:53:18;28.63;;;16.80;;
6420;SDS011;3243;50.958;7.012;2023-11-18T07:55:44;25.63;;;15.07;;
6420;SDS011;3243;50.958;7.012;2023-11-18T07:58:14;22.00;;;15.00;;
6420;SDS011;3243;50.958;7.012;2023-11-18T08:00:41;27.10;;;16.23;;
6420;SDS011;3243;50.958;7.012;2023-11-18T08:03:09;27.90;;;16.20;;
6420;SDS011;3243;50.958;7.012;2023-11-18T08:05:40;27.90;;;15.80;;
6420;SDS011;3243;50.958;7.012;2023-11-18T08:08:14;23.67;;;14.93;;
6420;SDS011;3243;50.958;7.012;2023-11-18T08:10:43;23.87;;;14.87;;
6420;SDS011;3243;50.958;7.012;2023-11-18T08:13:10;22.83;;;14.07;;
6420;SDS011;3243;50.958;7.012;2023-11-18T08:15:38;24.63;;;14.70;;
6420;SDS011;3243;50.958;7.012;2023-11-18T08:18:08;25.03;;;14.63;;
6420;SDS011;3243;50.958;7.012;2023-11-18T08:20:39;19.63;;;13.53;;
6420;SDS011;3243;50.958;7.012;2023-11-18T08:23:06;21.10;;;13.20;;
6420;SDS011;3243;50.958;7.012;2023-11-18T08:25:34;20.60;;;12.77;;
6420;SDS011;3243;50.958;7.012;2023-11-18T08:28:03;25.90;;;14.03;;
6420;SDS011;3243;50.958;7.012;2023-11-18T08:30:31;20.33;;;12.00;;
6420;SDS011;3243;50.958;7.012;2023-11-18T08:33:00;19.23;;;13.10;;
6420;SDS011;3243;50.958;7.012;2023-11-18T08:35:31;21.80;;;12.60;;
6420;SDS011;3243;50.958;7.012;2023-11-18T08:37:58;18.27;;;12.30;;
6420;SDS011;3243;50.958;7.012;2023-11-18T08:40:27;20.67;;;13.40;;
6420;SDS011;3243;50.958;7.012;2023-11-18T08:42:54;19.17;;;12.17;;
6420;SDS011;3243;50.958;7.012;2023-11-18T08:45:25;17.13;;;12.27;;
6420;SDS011;3243;50.958;7.012;2023-11-18T08:47:56;17.07;;;11.93;;
6420;SDS011;3243;50.958;7.012;2023-11-18T08:50:24;23.50;;;13.20;;
6420;SDS011;3243;50.958;7.012;2023-11-18T08:52:52;18.53;;;11.83;;
6420;SDS011;3243;50.958;7.012;2023-11-18T08:55:29;16.87;;;11.97;;
6420;SDS011;3243;50.958;7.012;2023-11-18T08:58:09;20.43;;;12.03;;
6420;SDS011;3243;50.958;7.012;2023-11-18T09:00:49;17.60;;;11.77;;
6420;SDS011;3243;50.958;7.012;2023-11-18T09:03:22;20.27;;;12.10;;
6420;SDS011;3243;50.958;7.012;2023-11-18T09:05:51;19.20;;;10.93;;
6420;SDS011;3243;50.958;7.012;2023-11-18T09:08:31;18.43;;;11.70;;
6420;SDS011;3243;50.958;7.012;2023-11-18T09:11:05;17.50;;;11.60;;
6420;SDS011;3243;50.958;7.012;2023-11-18T09:13:34;16.13;;;10.97;;
6420;SDS011;3243;50.958;7.012;2023-11-18T09:16:02;18.63;;;11.43;;
6420;SDS011;3243;50.958;7.012;2023-11-18T09:18:35;18.10;;;11.13;;
6420;SDS011;3243;50.958;7.012;2023-11-18T09:21:07;16.53;;;10.83;;
6420;SDS011;3243;50.958;7.012;2023-11-18T09:23:41;15.47;;;10.53;;
6420;SDS011;3243;50.958;7.012;2023-11-18T09:26:08;16.27;;;10.20;;
6420;SDS011;3243;50.958;7.012;2023-11-18T09:28:37;16.63;;;11.20;;
6420;SDS011;3243;50.958;7.012;2023-11-18T09:31:04;17.43;;;11.03;;
6420;SDS011;3243;50.958;7.012;2023-11-18T09:33:33;20.53;;;11.57;;
6420;SDS011;3243;50.958;7.012;2023-11-18T09:36:03;16.00;;;11.43;;
6420;SDS011;3243;50.958;7.012;2023-11-18T09:38:34;18.00;;;11.37;;
6420;SDS011;3243;50.958;7.012;2023-11-18T09:41:03;15.27;;;10.13;;
6420;SDS011;3243;50.958;7.012;2023-11-18T09:43:34;14.30;;;10.53;;
6420;SDS011;3243;50.958;7.012;2023-11-18T09:46:27;15.60;;;10.63;;
6420;SDS011;3243;50.958;7.012;2023-11-18T09:51:53;17.77;;;11.53;;
6420;SDS011;3243;50.958;7.012;2023-11-18T09:54:27;15.80;;;10.80;;
6420;SDS011;3243;50.958;7.012;2023-11-18T09:57:07;18.03;;;10.73;;
6420;SDS011;3243;50.958;7.012;2023-11-18T09:59:54;14.03;;;10.20;;
6420;SDS011;3243;50.958;7.012;2023-11-18T10:02:49;17.87;;;10.47;;
6420;SDS011;3243;50.958;7.012;2023-11-18T10:05:21;16.00;;;11.27;;
6420;SDS011;3243;50.958;7.012;2023-11-18T10:07:49;14.87;;;10.43;;
6420;SDS011;3243;50.958;7.012;2023-11-18T10:10:17;16.03;;;9.33;;
6420;SDS011;3243;50.958;7.012;2023-11-18T10:12:47;16.47;;;9.83;;
6420;SDS011;3243;50.958;7.012;2023-11-18T10:15:19;11.53;;;9.00;;
6420;SDS011;3243;50.958;7.012;2023-11-18T10:17:51;14.33;;;9.83;;
6420;SDS011;3243;50.958;7.012;2023-11-18T10:23:08;14.80;;;9.13;;
6420;SDS011;3243;50.958;7.012;2023-11-18T10:25:48;13.20;;;9.23;;
6420;SDS011;3243;50.958;7.012;2023-11-18T10:30:55;14.03;;;8.90;;
6420;SDS011;3243;50.958;7.012;2023-11-18T10:33:35;12.27;;;8.53;;
6420;SDS011;3243;50.958;7.012;2023-11-18T10:36:04;15.10;;;9.27;;
6420;SDS011;3243;50.958;7.012;2023-11-18T10:38:32;13.17;;;9.27;;
6420;SDS011;3243;50.958;7.012;2023-11-18T10:41:02;11.33;;;7.80;;
6420;SDS011;3243;50.958;7.012;2023-11-18T10:43:29;11.80;;;8.73;;
6420;SDS011;3243;50.958;7.012;2023-11-18T10:48:39;10.03;;;7.97;;
6420;SDS011;3243;50.958;7.012;2023-11-18T10:51:09;12.07;;;8.90;;
6420;SDS011;3243;50.958;7.012;2023-11-18T10:53:47;11.83;;;8.60;;
6420;SDS011;3243;50.958;7.012;2023-11-18T10:56:30;15.37;;;9.13;;
6420;SDS011;3243;50.958;7.012;2023-11-18T10:59:04;13.20;;;8.83;;
6420;SDS011;3243;50.958;7.012;2023-11-18T11:01:35;12.73;;;8.50;;
6420;SDS011;3243;50.958;7.012;2023-11-18T11:04:09;14.87;;;8.40;;
6420;SDS011;3243;50.958;7.012;2023-11-18T11:06:43;12.27;;;7.90;;
6420;SDS011;3243;50.958;7.012;2023-11-18T11:09:18;10.77;;;8.10;;
6420;SDS011;3243;50.958;7.012;2023-11-18T11:11:54;11.50;;;7.77;;
6420;SDS011;3243;50.958;7.012;2023-11-18T11:14:32;13.53;;;7.97;;
6420;SDS011;3243;50.958;7.012;2023-11-18T11:17:06;11.50;;;8.13;;
6420;SDS011;3243;50.958;7.012;2023-11-18T11:20:20;11.73;;;7.87;;
6420;SDS011;3243;50.958;7.012;2023-11-18T11:22:53;11.73;;;7.70;;
6420;SDS011;3243;50.958;7.012;2023-11-18T11:25:37;9.97;;;7.03;;
6420;SDS011;3243;50.958;7.012;2023-11-18T11:28:11;9.50;;;6.97;;
6420;SDS011;3243;50.958;7.012;2023-11-18T11:30:50;10.80;;;7.10;;
6420;SDS011;3243;50.958;7.012;2023-11-18T11:33:32;11.80;;;7.70;;
6420;SDS011;3243;50.958;7.012;2023-11-18T11:36:11;9.20;;;7.53;;
6420;SDS011;3243;50.958;7.012;2023-11-18T11:38:42;12.67;;;8.57;;
6420;SDS011;3243;50.958;7.012;2023-11-18T11:41:13;11.50;;;7.20;;
6420;SDS011;3243;50.958;7.012;2023-11-18T11:43:52;12.50;;;8.20;;
6420;SDS011;3243;50.958;7.012;2023-11-18T11:46:22;10.73;;;8.07;;
6420;SDS011;3243;50.958;7.012;2023-11-18T11:48:50;12.00;;;7.40;;
6420;SDS011;3243;50.958;7.012;2023-11-18T11:51:27;11.73;;;7.77;;
6420;SDS011;3243;50.958;7.012;2023-11-18T11:54:21;10.87;;;7.00;;
6420;SDS011;3243;50.958;7.012;2023-11-18T11:56:56;11.60;;;8.17;;
6420;SDS011;3243;50.958;7.012;2023-11-18T12:02:13;10.30;;;7.80;;
6420;SDS011;3243;50.958;7.012;2023-11-18T12:04:46;11.87;;;7.67;;
6420;SDS011;3243;50.958;7.012;2023-11-18T12:07:19;13.90;;;7.47;;
6420;SDS011;3243;50.958;7.012;2023-11-18T12:09:47;10.33;;;7.70;;
6420;SDS011;3243;50.958;7.012;2023-11-18T12:12:19;10.47;;;6.77;;
6420;SDS011;3243;50.958;7.012;2023-11-18T12:17:24;9.60;;;6.17;;
6420;SDS011;3243;50.958;7.012;2023-11-18T12:19:58;11.67;;;7.87;;
6420;SDS011;3243;50.958;7.012;2023-11-18T12:22:26;10.70;;;6.93;;
6420;SDS011;3243;50.958;7.012;2023-11-18T12:35:25;13.77;;;6.90;;
6420;SDS011;3243;50.958;7.012;2023-11-18T12:49:16;10.10;;;6.20;;
6420;SDS011;3243;50.958;7.012;2023-11-18T12:51:51;12.13;;;7.50;;
6420;SDS011;3243;50.958;7.012;2023-11-18T12:54:22;9.57;;;6.27;;
6420;SDS011;3243;50.958;7.012;2023-11-18T12:56:56;8.37;;;6.27;;
6420;SDS011;3243;50.958;7.012;2023-11-18T12:59:24;7.50;;;5.93;;
6420;SDS011;3243;50.958;7.012;2023-11-18T13:01:51;9.73;;;6.10;;
6420;SDS011;3243;50.958;7.012;2023-11-18T13:04:23;11.00;;;6.00;;
6420;SDS011;3243;50.958;7.012;2023-11-18T13:06:50;8.50;;;5.97;;
6420;SDS011;3243;50.958;7.012;2023-11-18T13:09:17;8.93;;;6.87;;
6420;SDS011;3243;50.958;7.012;2023-11-18T13:11:55;12.60;;;6.20;;
6420;SDS011;3243;50.958;7.012;2023-11-18T13:14:26;10.23;;;5.90;;
6420;SDS011;3243;50.958;7.012;2023-11-18T13:16:54;9.60;;;6.10;;
6420;SDS011;3243;50.958;7.012;2023-11-18T13:19:28;10.97;;;6.20;;
6420;SDS011;3243;50.958;7.012;2023-11-18T13:21:56;9.50;;;5.80;;
6420;SDS011;3243;50.958;7.012;2023-11-18T13:24:27;8.77;;;5.70;;
6420;SDS011;3243;50.958;7.012;2023-11-18T13:26:56;8.93;;;5.13;;
6420;SDS011;3243;50.958;7.012;2023-11-18T13:29:23;9.80;;;5.70;;
6420;SDS011;3243;50.958;7.012;2023-11-18T13:31:50;11.23;;;6.20;;
6420;SDS011;3243;50.958;7.012;2023-11-18T13:34:18;10.97;;;6.33;;
6420;SDS011;3243;50.958;7.012;2023-11-18T13:36:46;8.77;;;5.03;;
6420;SDS011;3243;50.958;7.012;2023-11-18T13:39:18;8.80;;;5.10;;
6420;SDS011;3243;50.958;7.012;2023-11-18T13:41:51;10.47;;;5.70;;
6420;SDS011;3243;50.958;7.012;2023-11-18T13:44:36;7.73;;;5.40;;
6420;SDS011;3243;50.958;7.012;2023-11-18T13:47:10;12.57;;;6.13;;
6420;SDS011;3243;50.958;7.012;2023-11-18T13:49:41;16.13;;;6.23;;
6420;SDS011;3243;50.958;7.012;2023-11-18T13:52:08;10.20;;;5.73;;
6420;SDS011;3243;50.958;7.012;2023-11-18T13:54:37;11.23;;;5.90;;
6420;SDS011;3243;50.958;7.012;2023-11-18T13:57:04;9.60;;;6.17;;
6420;SDS011;3243;50.958;7.012;2023-11-18T13:59:32;8.03;;;5.47;;
6420;SDS011;3243;50.958;7.012;2023-11-18T14:02:00;9.40;;;5.03;;
6420;SDS011;3243;50.958;7.012;2023-11-18T14:04:32;9.47;;;5.57;;
6420;SDS011;3243;50.958;7.012;2023-11-18T14:07:00;10.10;;;5.30;;
6420;SDS011;3243;50.958;7.012;2023-11-18T14:09:35;8.07;;;5.07;;
6420;SDS011;3243;50.958;7.012;2023-11-18T14:12:03;8.47;;;5.20;;
6420;SDS011;3243;50.958;7.012;2023-11-18T14:14:32;8.93;;;6.57;;
6420;SDS011;3243;50.958;7.012;2023-11-18T14:17:00;7.87;;;5.50;;
6420;SDS011;3243;50.958;7.012;2023-11-18T14:19:27;10.10;;;5.70;;
6420;SDS011;3243;50.958;7.012;2023-11-18T14:21:58;8.17;;;5.03;;
6420;SDS011;3243;50.958;7.012;2023-11-18T14:24:24;11.77;;;6.00;;
6420;SDS011;3243;50.958;7.012;2023-11-18T14:26:55;8.80;;;5.10;;
6420;SDS011;3243;50.958;7.012;2023-11-18T14:29:23;12.40;;;5.23;;
6420;SDS011;3243;50.958;7.012;2023-11-18T14:31:55;10.00;;;5.80;;
6420;SDS011;3243;50.958;7.012;2023-11-18T14:34:22;7.10;;;5.10;;
6420;SDS011;3243;50.958;7.012;2023-11-18T14:36:50;11.10;;;6.03;;
6420;SDS011;3243;50.958;7.012;2023-11-18T14:39:17;8.03;;;5.20;;
6420;SDS011;3243;50.958;7.012;2023-11-18T14:41:48;8.90;;;4.90;;
6420;SDS011;3243;50.958;7.012;2023-11-18T14:44:15;9.47;;;5.30;;
6420;SDS011;3243;50.958;7.012;2023-11-18T14:46:44;7.57;;;5.13;;
6420;SDS011;3243;50.958;7.012;2023-11-18T14:49:12;10.13;;;5.63;;
6420;SDS011;3243;50.958;7.012;2023-11-18T14:51:39;9.10;;;5.57;;
6420;SDS011;3243;50.958;7.012;2023-11-18T14:54:06;8.87;;;5.03;;
6420;SDS011;3243;50.958;7.012;2023-11-18T14:56:35;9.80;;;5.43;;
6420;SDS011;3243;50.958;7.012;2023-11-18T14:59:03;8.70;;;5.00;;
6420;SDS011;3243;50.958;7.012;2023-11-18T15:01:32;8.00;;;4.93;;
6420;SDS011;3243;50.958;7.012;2023-11-18T15:03:59;8.40;;;5.00;;
6420;SDS011;3243;50.958;7.012;2023-11-18T15:06:28;8.30;;;4.80;;
6420;SDS011;3243;50.958;7.012;2023-11-18T15:08:56;6.30;;;4.40;;
6420;SDS011;3243;50.958;7.012;2023-11-18T15:11:24;8.23;;;4.57;;
6420;SDS011;3243;50.958;7.012;2023-11-18T15:13:51;8.83;;;4.67;;
6420;SDS011;3243;50.958;7.012;2023-11-18T15:16:20;9.53;;;4.60;;
6420;SDS011;3243;50.958;7.012;2023-11-18T15:18:47;9.87;;;5.27;;
6420;SDS011;3243;50.958;7.012;2023-11-18T15:21:16;7.80;;;4.50;;
6420;SDS011;3243;50.958;7.012;2023-11-18T15:23:43;9.53;;;5.67;;
6420;SDS011;3243;50.958;7.012;2023-11-18T15:26:10;9.57;;;5.43;;
6420;SDS011;3243;50.958;7.012;2023-11-18T15:28:37;8.47;;;5.17;;
6420;SDS011;3243;50.958;7.012;2023-11-18T15:31:04;8.73;;;5.60;;
6420;SDS011;3243;50.958;7.012;2023-11-18T15:33:31;7.63;;;5.30;;
6420;SDS011;3243;50.958;7.012;2023-11-18T15:35:58;7.10;;;5.00;;
6420;SDS011;3243;50.958;7.012;2023-11-18T15:38:25;9.23;;;5.07;;
6420;SDS011;3243;50.958;7.012;2023-11-18T15:40:52;9.47;;;5.73;;
6420;SDS011;3243;50.958;7.012;2023-11-18T15:43:20;8.53;;;5.53;;
6420;SDS011;3243;50.958;7.012;2023-11-18T15:45:48;6.33;;;4.63;;
6420;SDS011;3243;50.958;7.012;2023-11-18T15:48:15;7.07;;;4.73;;
6420;SDS011;3243;50.958;7.012;2023-11-18T15:50:42;11.13;;;5.23;;
6420;SDS011;3243;50.958;7.012;2023-11-18T15:53:09;5.83;;;4.97;;
6420;SDS011;3243;50.958;7.012;2023-11-18T15:55:40;9.27;;;5.37;;
6420;SDS011;3243;50.958;7.012;2023-11-18T15:58:09;7.43;;;5.20;;